EGQM

Boulmer Airfield Airport

Boulmer, United Kingdom
METAR EGQM 181250Z AUTO 16024KT 9999 -RA SCT016/// BKN070/// 09/07 Q0998
Observed Flight Rules
Dec-18 @ 12:50 UTC (43 minutes ago) Visual Flight Rules
Wind Visibility Clouds Conditions
160° at 24 knots 10,000+ meters
  • Scattered at 1,600' AGL
  • Broken at 7,000' AGL
  • Light Rain
Temperatures Readings
Current 9°C / 48°F
Dewpoint 7°C / 45°F
Humidity 87%
Altimeter 29.47" Hg
Pressure 998 hPa
Elevation 23
METAR EGQM 181250Z AUTO 16024KT 9999 -RA SCT016/// BKN070/// 09/07 Q0998
Observed Flight Rules
Dec-18 @ 12:50 UTC
(43 minutes ago)
VFR
Wind Visibility
160° at 24 knots 10,000+ meters
Clouds
  • Scattered at 1,600' AGL
  • Broken at 7,000' AGL
Conditions
  • Light Rain
Temperature Dewpoint
9°C / 48°F 7°C / 45°F
Humidity Altimeter Pressure
87% 29.47" Hg 998 hPa